BBC Switzerland — DGFL2 — position and weather

sailwx.info

Track history (hours):
 
Tides and Currents Weather Stations Pressure Air Temp Water Temp Dewpoint Dewpoint Depression Visibility Wind Speed Wind Dir Waves Ship Positions

BBC Switzerland

Last reported at 2015-Mar-25 07:28 UTC. Time now 2015-Mar-31 02:02 UTC.
Position N 02°02' E 102°11'.

Length 119 m; draft 7.9 m.

Type: Cargo ship. MMSI: 218629000.

Date/timePositionNaut miles runAvg speedWind from/ knotsBaromVisibWave heightAir tempDewpointWater temp
2015-Mar-25 07:28N 02°02' E 102°11'1414.0
2015-Mar-25 06:30N 01°54' E 102°22'2612.8
2015-Mar-25 04:28N 01°44' E 102°46'66 1.3
2015-Mar-23 00:33N 01°16' E 103°46'4 0.3
2015-Mar-22 11:20N 01°13' E 103°49'5 6.5
2015-Mar-22 10:30N 01°14' E 103°55'1010.7
2015-Mar-22 09:31N 01°16' E 104°05'  
2015-Mar-17 23:04N 20°43' E 118°48'12712.1
2015-Mar-17 12:33N 22°26' E 120°08'1110.6
2015-Mar-17 11:33N 22°33' E 120°17'2 0.1
2015-Mar-16 05:10N 22°33' E 120°18'4 6.5
2015-Mar-16 04:33N 22°32' E 120°14'1414.3
2015-Mar-16 03:33N 22°44' E 120°05'  
Track history (hours):
 
Tides and Currents Weather Stations Pressure Air Temp Water Temp Dewpoint Dewpoint Depression Visibility Wind Speed Wind Dir Waves Ship Positions

BBC Switzerland

Last reported at 2015-Mar-25 07:28 UTC. Time now 2015-Mar-31 02:02 UTC.
Position N 02°02' E 102°11'.

Length 119 m; draft 7.9 m.

Type: Cargo ship. MMSI: 218629000.

Date/timePositionNaut miles runAvg speedWind from/ knotsBaromVisibWave heightAir tempDewpointWater temp
2015-Mar-25 07:28N 02°02' E 102°11'1414.0
2015-Mar-25 06:30N 01°54' E 102°22'2612.8
2015-Mar-25 04:28N 01°44' E 102°46'66 1.3
2015-Mar-23 00:33N 01°16' E 103°46'4 0.3
2015-Mar-22 11:20N 01°13' E 103°49'5 6.5
2015-Mar-22 10:30N 01°14' E 103°55'1010.7
2015-Mar-22 09:31N 01°16' E 104°05'  
2015-Mar-17 23:04N 20°43' E 118°48'12712.1
2015-Mar-17 12:33N 22°26' E 120°08'1110.6
2015-Mar-17 11:33N 22°33' E 120°17'2 0.1
2015-Mar-16 05:10N 22°33' E 120°18'4 6.5
2015-Mar-16 04:33N 22°32' E 120°14'1414.3
2015-Mar-16 03:33N 22°44' E 120°05'  

Dump ship's entire track history